createdAt,value
2019-02-25T00:00:25.404Z,58.20
2019-02-25T00:03:02.190Z,58.40
2019-02-25T00:05:52.747Z,57.40
2019-02-25T00:08:24.900Z,57.50
2019-02-25T00:10:52.697Z,57.90
2019-02-25T00:13:20.494Z,58.00
2019-02-25T00:15:48.269Z,58.30
2019-02-25T00:18:16.779Z,58.70
2019-02-25T00:20:44.390Z,57.90
2019-02-25T00:23:12.170Z,57.90
2019-02-25T00:25:39.796Z,58.10
2019-02-25T00:28:07.476Z,58.40
2019-02-25T00:30:37.624Z,58.60
2019-02-25T00:33:05.575Z,59.10
2019-02-25T00:35:33.521Z,59.10
2019-02-25T00:38:02.124Z,58.90
2019-02-25T00:40:29.852Z,59.10
2019-02-25T00:42:57.537Z,58.80
2019-02-25T00:45:25.175Z,58.80
2019-02-25T00:47:55.934Z,58.60
2019-02-25T00:50:24.048Z,58.20
2019-02-25T00:52:51.764Z,58.90
2019-02-25T00:55:20.356Z,58.70
2019-02-25T00:57:48.476Z,58.60
2019-02-25T01:00:17.371Z,58.70
2019-02-25T01:02:45.283Z,58.80
2019-02-25T01:05:13.724Z,58.80
2019-02-25T01:07:41.448Z,60.30
2019-02-25T01:10:09.510Z,59.90
2019-02-25T01:12:37.065Z,59.80
2019-02-25T01:15:08.989Z,59.80
2019-02-25T01:17:36.766Z,60.60
2019-02-25T01:20:04.781Z,59.30
2019-02-25T01:22:32.365Z,59.00
2019-02-25T01:24:59.909Z,59.70
2019-02-25T01:27:27.390Z,60.20
2019-02-25T01:29:55.084Z,60.20
2019-02-25T01:32:22.810Z,61.30
2019-02-25T01:34:50.353Z,61.50
2019-02-25T01:37:17.969Z,62.10
2019-02-25T01:39:45.775Z,61.30
2019-02-25T01:42:15.342Z,61.10
2019-02-25T01:44:43.006Z,61.10
2019-02-25T01:47:11.123Z,61.10
2019-02-25T01:49:38.880Z,61.10
2019-02-25T01:52:06.545Z,61.20
2019-02-25T01:54:34.206Z,61.40
2019-02-25T01:57:02.015Z,62.30
2019-02-25T01:59:29.525Z,61.20
2019-02-25T02:01:56.978Z,60.90
2019-02-25T02:04:24.755Z,60.80
2019-02-25T02:06:54.173Z,61.20
2019-02-25T02:09:22.015Z,62.00
2019-02-25T02:11:49.490Z,61.00
2019-02-25T02:14:16.933Z,60.80
2019-02-25T02:16:44.453Z,60.60
2019-02-25T02:19:12.041Z,60.60
2019-02-25T02:21:39.738Z,61.00
2019-02-25T02:24:07.580Z,61.40
2019-02-25T02:26:35.104Z,61.60
2019-02-25T02:29:02.896Z,61.60
2019-02-25T02:31:30.355Z,61.20
2019-02-25T02:33:58.006Z,60.90
2019-02-25T02:36:25.727Z,60.70
2019-02-25T02:38:53.335Z,60.70
2019-02-25T02:41:20.728Z,61.20
2019-02-25T02:43:48.895Z,61.10
2019-02-25T02:47:06.711Z,60.20
2019-02-25T02:49:34.322Z,60.00
2019-02-25T02:52:01.846Z,60.00
2019-02-25T02:54:29.416Z,60.10
2019-02-25T02:56:57.170Z,60.20
2019-02-25T02:59:24.665Z,61.80
2019-02-25T03:01:52.199Z,60.80
2019-02-25T03:04:19.702Z,61.20
2019-02-25T03:06:47.183Z,61.40
2019-02-25T03:09:14.794Z,61.50
2019-02-25T03:11:42.517Z,61.40
2019-02-25T03:14:10.085Z,60.60
2019-02-25T03:16:37.591Z,60.90
2019-02-25T03:19:05.177Z,60.90
2019-02-25T03:21:32.617Z,61.00
2019-02-25T03:24:00.901Z,61.40
2019-02-25T03:26:28.329Z,61.10
2019-02-25T03:28:55.717Z,61.20
2019-02-25T03:31:23.185Z,62.40
2019-02-25T03:33:50.602Z,63.10
2019-02-25T03:36:18.084Z,63.30
2019-02-25T03:38:45.598Z,63.70
2019-02-25T03:41:13.054Z,66.00
2019-02-25T03:43:40.681Z,65.40
2019-02-25T03:46:08.278Z,67.20
2019-02-25T03:48:35.724Z,67.20
2019-02-25T03:51:03.277Z,68.40
2019-02-25T03:53:30.714Z,67.60
2019-02-25T03:55:58.353Z,67.60
2019-02-25T03:58:25.798Z,68.50
2019-02-25T04:00:53.686Z,68.90
2019-02-25T04:03:21.265Z,67.80
2019-02-25T04:05:48.943Z,66.70
2019-02-25T04:08:16.524Z,65.90
2019-02-25T04:10:44.151Z,65.80
2019-02-25T04:13:11.495Z,66.90
2019-02-25T04:15:41.660Z,66.80
2019-02-25T04:18:09.142Z,67.10
2019-02-25T04:20:36.664Z,66.60
2019-02-25T04:23:04.129Z,66.80
2019-02-25T04:25:31.590Z,66.60
2019-02-25T04:28:00.225Z,66.50
2019-02-25T04:30:27.792Z,66.70
2019-02-25T04:32:55.149Z,69.20
2019-02-25T04:35:22.816Z,68.00
2019-02-25T04:37:50.218Z,67.50
2019-02-25T04:40:17.658Z,67.40
2019-02-25T04:42:45.075Z,67.60
2019-02-25T04:45:14.962Z,68.30
2019-02-25T04:47:42.550Z,68.80
2019-02-25T04:50:10.923Z,69.30
2019-02-25T04:52:38.319Z,70.20
2019-02-25T04:55:06.488Z,69.80
2019-02-25T04:57:33.869Z,69.60
2019-02-25T05:00:02.438Z,69.60
2019-02-25T05:02:30.235Z,69.30
2019-02-25T05:04:57.786Z,68.90
2019-02-25T05:07:25.239Z,68.90
2019-02-25T05:09:52.681Z,69.10
2019-02-25T05:12:20.013Z,69.60
2019-02-25T05:14:48.692Z,70.20
2019-02-25T05:17:16.156Z,70.00
2019-02-25T05:19:43.650Z,70.60
2019-02-25T05:22:11.011Z,71.30
2019-02-25T05:24:39.116Z,72.30
2019-02-25T05:27:06.766Z,75.50
2019-02-25T05:29:34.263Z,72.20
2019-02-25T05:32:01.794Z,71.50
2019-02-25T05:34:29.557Z,71.40
2019-02-25T05:36:57.016Z,71.80
2019-02-25T05:39:24.534Z,71.70
2019-02-25T05:41:51.860Z,71.70
2019-02-25T05:44:19.518Z,71.20
2019-02-25T05:46:47.072Z,71.20
2019-02-25T05:49:14.571Z,70.90
2019-02-25T05:51:41.883Z,70.80
2019-02-25T05:54:09.342Z,70.60
2019-02-25T05:56:37.485Z,70.70
2019-02-25T05:59:05.079Z,70.80
2019-02-25T06:01:32.457Z,70.70
2019-02-25T06:03:59.817Z,70.90
2019-02-25T06:06:27.450Z,71.00
2019-02-25T06:08:54.826Z,71.20
2019-02-25T06:11:22.220Z,72.00
2019-02-25T06:13:50.768Z,71.60
2019-02-25T06:16:18.189Z,71.50
2019-02-25T06:18:46.230Z,71.50
2019-02-25T06:21:14.438Z,71.70
2019-02-25T06:23:41.956Z,71.30
2019-02-25T06:26:09.332Z,70.70
2019-02-25T06:28:36.708Z,68.80
2019-02-25T06:31:04.362Z,67.70
2019-02-25T06:33:31.845Z,66.30
2019-02-25T06:35:59.143Z,65.60
2019-02-25T06:38:26.505Z,64.60
2019-02-25T06:40:53.954Z,64.60
2019-02-25T06:43:21.524Z,63.40
2019-02-25T06:45:49.066Z,63.10
2019-02-25T06:48:16.574Z,62.40
2019-02-25T06:50:44.022Z,62.50
2019-02-25T06:53:11.401Z,62.00
2019-02-25T06:55:40.012Z,62.00
2019-02-25T06:58:07.455Z,60.90
2019-02-25T07:00:35.058Z,59.80
2019-02-25T07:03:02.602Z,58.40
2019-02-25T07:06:04.733Z,56.20
2019-02-25T07:08:47.652Z,54.40
2019-02-25T07:11:23.266Z,52.10
2019-02-25T07:14:05.825Z,51.00
2019-02-25T07:16:52.830Z,49.70
2019-02-25T07:19:39.969Z,49.20
2019-02-25T07:22:32.709Z,48.50
2019-02-25T07:25:14.253Z,46.80
2019-02-25T07:27:59.637Z,46.00
2019-02-25T07:31:04.941Z,44.80
2019-02-25T07:33:40.866Z,43.80
2019-02-25T07:36:19.080Z,42.30
2019-02-25T07:39:11.860Z,40.20
2019-02-25T07:41:52.617Z,39.90
2019-02-25T07:44:30.828Z,39.40
2019-02-25T07:47:26.995Z,38.10
2019-02-25T07:50:05.272Z,37.60
2019-02-25T07:52:43.220Z,36.40
2019-02-25T07:55:39.261Z,36.30
2019-02-25T07:58:32.295Z,35.10
2019-02-25T08:01:05.381Z,33.40
2019-02-25T08:04:03.164Z,32.60
2019-02-25T08:06:46.235Z,31.20
2019-02-25T08:09:39.658Z,30.30
2019-02-25T08:12:23.590Z,30.30
2019-02-25T08:15:09.136Z,30.00
2019-02-25T08:17:52.814Z,28.60
2019-02-25T08:20:40.304Z,27.40
2019-02-25T08:23:30.983Z,27.90
2019-02-25T08:26:13.722Z,27.30
2019-02-25T08:29:03.381Z,26.60
2019-02-25T08:31:48.264Z,26.90
2019-02-25T08:34:51.184Z,25.90
2019-02-25T08:38:08.486Z,25.50
2019-02-25T08:40:55.206Z,24.70
2019-02-25T08:43:37.030Z,24.10
2019-02-25T08:46:27.642Z,24.50
2019-02-25T08:49:05.383Z,25.50
2019-02-25T08:51:38.488Z,26.50
2019-02-25T08:54:08.418Z,26.90
2019-02-25T08:56:36.112Z,27.50
2019-02-25T08:59:04.273Z,28.50
2019-02-25T09:01:34.519Z,28.80
2019-02-25T09:04:02.462Z,29.00
2019-02-25T09:06:30.288Z,29.40
2019-02-25T09:08:58.157Z,29.00
2019-02-25T09:11:26.696Z,29.80
2019-02-25T09:13:55.828Z,29.50
2019-02-25T09:16:24.850Z,30.00
2019-02-25T09:18:54.156Z,30.70
2019-02-25T09:21:31.415Z,30.40
2019-02-25T09:23:56.368Z,30.60
2019-02-25T09:26:32.127Z,30.70
2019-02-25T09:29:04.180Z,30.40
2019-02-25T09:31:38.953Z,30.60
2019-02-25T09:34:08.369Z,30.00
2019-02-25T09:36:40.191Z,29.90
2019-02-25T09:39:16.665Z,29.70
2019-02-25T09:41:58.291Z,29.50
2019-02-25T09:44:29.959Z,29.90
2019-02-25T09:47:10.952Z,29.80
2019-02-25T09:49:40.610Z,30.40
2019-02-25T09:52:08.391Z,30.40
2019-02-25T09:54:44.484Z,30.30
2019-02-25T09:57:17.649Z,30.00
2019-02-25T09:59:49.679Z,29.20
2019-02-25T10:02:19.681Z,29.30
2019-02-25T10:04:49.023Z,28.90
2019-02-25T10:07:19.107Z,28.40
2019-02-25T10:09:48.445Z,27.90
2019-02-25T10:12:17.833Z,27.40
2019-02-25T10:14:49.440Z,26.80
2019-02-25T10:17:23.975Z,26.40
2019-02-25T10:19:59.512Z,25.40
2019-02-25T10:22:32.783Z,24.40
2019-02-25T10:25:01.572Z,23.80
2019-02-25T10:27:30.881Z,23.40
2019-02-25T10:30:04.175Z,23.20
2019-02-25T10:32:39.255Z,22.50
2019-02-25T10:35:10.795Z,22.00
2019-02-25T10:38:07.193Z,22.20
2019-02-25T10:40:47.282Z,21.60
2019-02-25T10:43:13.558Z,21.50
2019-02-25T10:45:48.488Z,21.10
2019-02-25T10:48:19.852Z,21.00
2019-02-25T10:50:55.922Z,20.40
2019-02-25T10:53:22.117Z,20.50
2019-02-25T10:56:01.023Z,19.90
2019-02-25T10:58:31.714Z,20.30
2019-02-25T11:01:02.700Z,20.20
2019-02-25T11:03:35.181Z,20.10
2019-02-25T11:06:05.670Z,20.20
2019-02-25T11:08:45.684Z,20.00
2019-02-25T11:11:21.000Z,19.80
2019-02-25T11:13:52.268Z,20.00
2019-02-25T11:16:22.984Z,20.60
2019-02-25T11:19:33.002Z,20.80
2019-02-25T11:22:48.544Z,20.50
2019-02-25T11:25:19.269Z,20.00
2019-02-25T11:27:50.213Z,19.90
2019-02-25T11:30:21.225Z,19.90
2019-02-25T11:32:56.186Z,19.70
2019-02-25T11:35:24.709Z,19.40
2019-02-25T11:37:58.465Z,18.90
2019-02-25T11:40:28.401Z,18.60
2019-02-25T11:43:02.690Z,19.00
2019-02-25T11:45:33.498Z,19.10
2019-02-25T11:48:09.170Z,19.00
2019-02-25T11:50:41.902Z,19.30
2019-02-25T11:53:12.332Z,18.90
2019-02-25T11:55:42.722Z,19.00
2019-02-25T11:58:11.651Z,19.30
2019-02-25T12:00:42.658Z,19.10
2019-02-25T12:03:12.535Z,18.90
2019-02-25T12:05:41.951Z,18.40
2019-02-25T12:08:19.432Z,19.20
2019-02-25T12:11:38.628Z,20.00
2019-02-25T12:14:14.595Z,19.60
2019-02-25T12:16:45.199Z,19.70
2019-02-25T12:19:23.431Z,19.60
2019-02-25T12:22:20.151Z,20.00
2019-02-25T12:24:50.493Z,20.10
2019-02-25T12:27:25.296Z,20.40
2019-02-25T12:30:27.596Z,20.60
2019-02-25T12:32:59.843Z,20.80
2019-02-25T12:35:49.312Z,20.90
2019-02-25T12:38:42.482Z,21.60
2019-02-25T12:41:31.468Z,21.90
2019-02-25T12:44:11.948Z,22.60
2019-02-25T12:51:07.814Z,24.20
2019-02-25T12:54:46.409Z,25.20
2019-02-25T12:57:31.987Z,25.80
2019-02-25T13:00:10.229Z,26.10
2019-02-25T13:02:40.012Z,26.60
2019-02-25T13:05:12.469Z,27.20
2019-02-25T13:07:50.348Z,27.80
2019-02-25T13:10:23.264Z,28.40
2019-02-25T13:12:54.558Z,28.70
2019-02-25T13:15:38.084Z,29.00
2019-02-25T13:18:45.168Z,29.10
2019-02-25T13:21:28.833Z,28.50
2019-02-25T13:24:10.970Z,28.70
2019-02-25T13:26:45.643Z,28.90
2019-02-25T13:29:22.661Z,28.60
2019-02-25T13:31:55.600Z,29.40
2019-02-25T13:34:27.991Z,30.30
2019-02-25T13:37:30.657Z,30.70
2019-02-25T13:40:10.128Z,31.00
2019-02-25T13:46:58.961Z,30.30
2019-02-25T13:49:35.067Z,30.00
2019-02-25T13:52:18.489Z,29.30
2019-02-25T13:54:48.043Z,29.20
2019-02-25T13:57:18.232Z,28.60
2019-02-25T13:59:55.651Z,28.60
2019-02-25T14:02:42.918Z,28.50
2019-02-25T14:05:23.987Z,28.50
2019-02-25T14:08:22.794Z,28.90
2019-02-25T14:10:54.153Z,28.90
2019-02-25T14:13:36.375Z,28.50
2019-02-25T14:16:42.681Z,28.30
2019-02-25T14:19:19.908Z,28.20
2019-02-25T14:22:06.264Z,28.40
2019-02-25T14:24:59.424Z,28.60
2019-02-25T14:27:50.948Z,29.30
2019-02-25T14:30:24.198Z,30.00
2019-02-25T14:32:59.777Z,30.90
2019-02-25T14:35:54.356Z,32.00
2019-02-25T14:38:32.158Z,33.40
2019-02-25T14:41:31.541Z,35.50
2019-02-25T14:44:16.528Z,37.30
2019-02-25T14:47:20.555Z,39.00
2019-02-25T14:49:49.203Z,40.50
2019-02-25T14:52:19.834Z,41.90
2019-02-25T14:54:49.902Z,43.00
2019-02-25T14:57:20.285Z,44.10
2019-02-25T14:59:47.488Z,44.90
2019-02-25T15:02:15.755Z,45.70
2019-02-25T15:04:43.903Z,46.70
2019-02-25T15:07:13.530Z,47.60
2019-02-25T15:09:43.585Z,48.40
2019-02-25T15:12:14.940Z,49.00
2019-02-25T15:14:42.975Z,49.50
2019-02-25T15:17:12.651Z,50.60
2019-02-25T15:19:41.190Z,51.00
2019-02-25T15:22:11.210Z,51.40
2019-02-25T15:24:38.914Z,52.00
2019-02-25T15:27:07.254Z,53.80
2019-02-25T15:29:37.101Z,54.00
2019-02-25T15:32:05.309Z,54.10
2019-02-25T15:34:32.857Z,54.60
2019-02-25T15:37:00.715Z,54.90
2019-02-25T15:39:29.985Z,55.30
2019-02-25T15:41:57.829Z,55.90
2019-02-25T15:44:26.921Z,56.40
2019-02-25T15:46:55.064Z,57.10
2019-02-25T15:49:24.425Z,58.00
2019-02-25T15:51:52.978Z,58.10
2019-02-25T15:54:20.862Z,58.80
2019-02-25T15:56:48.863Z,58.90
2019-02-25T15:59:16.495Z,59.80
2019-02-25T16:01:44.682Z,60.10
2019-02-25T16:04:13.469Z,61.30
2019-02-25T16:06:41.280Z,62.20
2019-02-25T16:09:09.375Z,62.30
2019-02-25T16:11:39.337Z,63.50
2019-02-25T16:14:09.718Z,64.40
2019-02-25T16:16:37.697Z,64.70
2019-02-25T16:19:05.985Z,65.40
2019-02-25T16:21:33.894Z,66.10
2019-02-25T16:24:04.196Z,67.00
2019-02-25T16:26:32.089Z,68.10
2019-02-25T16:29:04.628Z,69.10
2019-02-25T16:31:33.202Z,70.10
2019-02-25T16:34:02.656Z,71.40
2019-02-25T16:36:31.118Z,72.60
2019-02-25T16:39:00.427Z,73.60
2019-02-25T16:41:32.337Z,74.20
2019-02-25T16:44:02.073Z,76.00
2019-02-25T16:46:30.049Z,78.30
2019-02-25T16:48:57.737Z,77.00
2019-02-25T16:51:25.868Z,77.60
2019-02-25T16:53:55.141Z,77.60
2019-02-25T16:57:43.845Z,79.20
2019-02-25T17:00:14.729Z,78.50
2019-02-25T17:02:44.750Z,80.00
2019-02-25T17:06:06.779Z,80.50
2019-02-25T17:08:35.434Z,80.90
2019-02-25T17:11:02.998Z,82.20
2019-02-25T17:13:33.066Z,82.40
2019-02-25T17:16:02.754Z,82.30
2019-02-25T17:18:36.839Z,83.50
2019-02-25T17:21:05.118Z,83.20
2019-02-25T17:23:34.507Z,83.80
2019-02-25T17:26:07.388Z,84.20
2019-02-25T17:28:33.606Z,84.80
2019-02-25T17:31:48.605Z,85.10
2019-02-25T17:34:16.992Z,85.30
2019-02-25T17:36:47.348Z,87.40
2019-02-25T17:39:17.117Z,86.20
2019-02-25T17:41:44.882Z,86.30
2019-02-25T17:44:12.461Z,86.40
2019-02-25T17:46:43.354Z,86.80
2019-02-25T17:49:12.254Z,87.80
2019-02-25T17:51:40.462Z,88.40
2019-02-25T17:54:10.125Z,88.00
2019-02-25T17:56:37.897Z,88.50
2019-02-25T17:59:07.552Z,89.00
2019-02-25T18:01:36.033Z,89.40
2019-02-25T18:04:06.474Z,90.50
2019-02-25T18:06:34.414Z,89.60
2019-02-25T18:09:06.924Z,89.80
2019-02-25T18:11:39.074Z,89.90
2019-02-25T18:14:09.528Z,90.20
2019-02-25T18:16:39.169Z,90.40
2019-02-25T18:19:11.672Z,90.10
2019-02-25T18:21:43.021Z,90.10
2019-02-25T18:24:10.019Z,90.80
2019-02-25T18:26:40.027Z,90.70
2019-02-25T18:29:09.389Z,91.20
2019-02-25T18:31:37.676Z,91.40
2019-02-25T18:34:06.958Z,91.10
2019-02-25T18:36:36.421Z,91.30
2019-02-25T18:39:11.530Z,91.40
2019-02-25T18:45:02.709Z,91.40
2019-02-25T18:47:32.105Z,91.40
2019-02-25T18:50:00.935Z,91.90
2019-02-25T18:52:31.967Z,91.50
2019-02-25T18:55:02.816Z,91.80
2019-02-25T18:57:31.106Z,91.70
2019-02-25T18:59:59.430Z,91.70
2019-02-25T19:02:28.503Z,91.40
2019-02-25T19:04:58.254Z,91.50
2019-02-25T19:07:27.250Z,91.50
2019-02-25T19:09:58.075Z,91.30
2019-02-25T19:12:26.361Z,91.20
2019-02-25T19:14:55.730Z,91.00
2019-02-25T19:17:25.169Z,91.40
2019-02-25T19:19:53.040Z,91.00
2019-02-25T19:22:21.393Z,90.90
2019-02-25T19:24:50.512Z,90.60
2019-02-25T19:27:18.444Z,90.50
2019-02-25T19:29:47.692Z,90.40
2019-02-25T19:32:16.457Z,90.10
2019-02-25T19:34:44.809Z,89.60
2019-02-25T19:37:14.345Z,89.00
2019-02-25T19:39:43.821Z,88.60
2019-02-25T19:42:15.164Z,87.80
2019-02-25T19:44:40.954Z,87.20
2019-02-25T19:47:09.871Z,87.30
2019-02-25T19:49:38.986Z,86.10
2019-02-25T19:52:07.947Z,85.60
2019-02-25T19:54:38.452Z,85.40
2019-02-25T19:57:06.388Z,84.80
2019-02-25T19:59:33.888Z,84.10
2019-02-25T20:02:02.254Z,83.80
2019-02-25T20:04:33.468Z,83.50
2019-02-25T20:07:00.912Z,83.70
2019-02-25T20:09:28.965Z,83.10
2019-02-25T20:11:57.325Z,83.40
2019-02-25T20:14:25.765Z,83.70
2019-02-25T20:16:53.968Z,83.40
2019-02-25T20:19:21.545Z,83.20
2019-02-25T20:21:50.725Z,83.20
2019-02-25T20:24:19.481Z,83.30
2019-02-25T20:26:50.634Z,83.20
2019-02-25T20:29:18.701Z,82.70
2019-02-25T20:31:47.626Z,82.40
2019-02-25T20:34:18.431Z,82.00
2019-02-25T20:36:46.479Z,82.20
2019-02-25T20:39:17.019Z,81.40
2019-02-25T20:41:45.899Z,81.50
2019-02-25T20:44:18.571Z,80.90
2019-02-25T20:46:50.684Z,81.30
2019-02-25T20:49:18.376Z,81.20
2019-02-25T20:51:49.865Z,81.00
2019-02-25T20:54:18.578Z,80.60
2019-02-25T20:56:49.564Z,80.80
2019-02-25T20:59:20.967Z,81.10
2019-02-25T21:01:51.094Z,81.80
2019-02-25T21:04:21.829Z,81.60
2019-02-25T21:06:52.161Z,81.80
2019-02-25T21:09:20.875Z,81.80
2019-02-25T21:11:48.418Z,82.10
2019-02-25T21:14:15.950Z,81.90
2019-02-25T21:16:44.330Z,81.80
2019-02-25T21:19:14.433Z,82.10
2019-02-25T21:21:41.500Z,82.50
2019-02-25T21:24:11.275Z,83.60
2019-02-25T21:26:39.227Z,83.20
2019-02-25T21:29:09.727Z,83.10
2019-02-25T21:31:43.228Z,82.80
2019-02-25T21:34:15.337Z,82.80
2019-02-25T21:36:40.433Z,83.00
2019-02-25T21:39:11.702Z,83.10
2019-02-25T21:41:43.475Z,82.60
2019-02-25T21:44:14.241Z,82.40
2019-02-25T21:46:40.669Z,83.20
2019-02-25T21:49:08.476Z,83.60
2019-02-25T21:51:36.892Z,83.20
2019-02-25T21:54:06.641Z,83.50
2019-02-25T21:56:34.584Z,83.70
2019-02-25T21:59:02.327Z,84.20
2019-02-25T22:01:31.931Z,84.70
2019-02-25T22:03:59.843Z,84.60
2019-02-25T22:06:29.633Z,84.40
2019-02-25T22:09:10.680Z,84.60
2019-02-25T22:11:40.702Z,85.00
2019-02-25T22:14:09.969Z,86.30
2019-02-25T22:16:43.994Z,86.00
2019-02-25T22:19:09.866Z,86.70
2019-02-25T22:21:37.961Z,86.60
2019-02-25T22:24:07.469Z,87.10
2019-02-25T22:26:35.667Z,89.60
2019-02-25T22:29:04.532Z,88.10
2019-02-25T22:31:34.672Z,88.00
2019-02-25T22:34:01.809Z,88.80
2019-02-25T22:36:29.301Z,88.60
2019-02-25T22:38:58.955Z,89.10
2019-02-25T22:41:28.063Z,89.90
2019-02-25T22:43:55.681Z,89.30
2019-02-25T22:46:23.544Z,88.80
2019-02-25T22:48:53.990Z,88.30
2019-02-25T22:51:24.281Z,87.90
2019-02-25T22:53:51.639Z,87.40
2019-02-25T22:56:21.476Z,87.20
2019-02-25T22:58:48.609Z,86.60
2019-02-25T23:01:18.045Z,86.60
2019-02-25T23:03:47.946Z,86.00
2019-02-25T23:06:16.285Z,85.60
2019-02-25T23:08:46.446Z,85.20
2019-02-25T23:11:16.565Z,85.00
2019-02-25T23:13:45.713Z,84.90
2019-02-25T23:16:15.494Z,84.90
2019-02-25T23:18:47.736Z,84.80
2019-02-25T23:21:23.169Z,84.60
2019-02-25T23:23:42.819Z,84.80
2019-02-25T23:26:12.136Z,84.80
2019-02-25T23:28:39.887Z,84.70
2019-02-25T23:31:07.336Z,84.80
2019-02-25T23:33:38.128Z,85.00
2019-02-25T23:36:04.229Z,84.70
2019-02-25T23:38:31.885Z,84.80
2019-02-25T23:41:01.227Z,84.80
2019-02-25T23:43:28.677Z,84.50
2019-02-25T23:45:58.002Z,84.60
2019-02-25T23:48:30.213Z,84.40
2019-02-25T23:50:57.194Z,84.70
2019-02-25T23:53:26.645Z,84.90
2019-02-25T23:55:54.768Z,85.20
2019-02-25T23:58:24.119Z,85.70
